Time;durP1;ratioP1;P1;durP2;ratioP2;P2;SDS_P1;SDS_P2;PMS_P1;PMS_P2;Temp;Humidity;BMP_temperature;BMP_pressure;BME280_temperature;BME280_humidity;BME280_pressure;Samples;Min_cycle;Max_cycle;Signal;HPM_P1;HPM_P2
2021/10/06 15:01:29;;;;;;;13.27;4.25;;;29.30;91.40;;;;;;5080975;28;20456;-47
2021/10/06 15:03:55;;;;;;;10.52;3.65;;;29.10;91.70;;;;;;5080949;28;20040;-44
2021/10/06 15:06:22;;;;;;;12.82;4.05;;;29.10;91.70;;;;;;5081187;28;20031;-41
2021/10/06 15:08:49;;;;;;;10.60;3.80;;;29.10;91.70;;;;;;5081054;28;20063;-43
2021/10/06 15:11:15;;;;;;;9.52;4.15;;;29.10;92.10;;;;;;5081397;28;20100;-48
2021/10/06 15:13:42;;;;;;;10.20;3.55;;;29.10;92.40;;;;;;5080966;28;20020;-44
2021/10/06 15:16:09;;;;;;;7.25;3.50;;;29.10;92.20;;;;;;5081451;28;20324;-49
2021/10/06 15:18:35;;;;;;;8.80;3.78;;;29.00;92.10;;;;;;5080787;28;20096;-48
2021/10/06 15:21:02;;;;;;;8.20;3.72;;;29.00;92.20;;;;;;5081342;28;20031;-48
2021/10/06 15:23:29;;;;;;;8.10;3.60;;;29.00;92.10;;;;;;5081130;28;20086;-43
2021/10/06 15:25:55;;;;;;;8.93;3.70;;;29.10;92.00;;;;;;5081080;28;20023;-53
2021/10/06 15:28:22;;;;;;;8.98;3.70;;;29.10;92.00;;;;;;5081042;28;20032;-46
2021/10/06 15:30:49;;;;;;;9.27;4.18;;;29.00;91.90;;;;;;5081201;28;20032;-43
2021/10/06 15:33:17;;;;;;;8.60;3.75;;;29.10;92.00;;;;;;5080629;28;20032;-45
2021/10/06 15:35:46;;;;;;;5.75;4.13;;;29.10;91.90;;;;;;5080533;28;20029;-49
2021/10/06 15:38:14;;;;;;;8.35;3.92;;;29.10;91.90;;;;;;5080522;28;20056;-48
2021/10/06 15:40:41;;;;;;;7.95;4.00;;;29.10;91.80;;;;;;5080595;28;20174;-44
2021/10/06 15:43:09;;;;;;;7.68;3.72;;;29.10;91.80;;;;;;5080433;28;20062;-46
2021/10/06 15:45:37;;;;;;;9.35;4.28;;;29.20;91.80;;;;;;5080743;28;20259;-46
2021/10/06 15:48:05;;;;;;;7.97;3.90;;;29.20;91.80;;;;;;5080187;28;20213;-44
2021/10/06 15:50:31;;;;;;;8.57;4.15;;;29.20;91.70;;;;;;5080536;28;20021;-51
2021/10/06 15:52:58;;;;;;;8.25;4.10;;;29.20;91.70;;;;;;5079169;28;20016;-43
2021/10/06 15:55:24;;;;;;;5.80;3.95;;;29.20;91.60;;;;;;5080403;28;20228;-47
2021/10/06 15:57:51;;;;;;;6.70;4.13;;;29.20;91.60;;;;;;5080378;28;20317;-44
2021/10/06 16:00:18;;;;;;;13.25;4.75;;;29.30;91.60;;;;;;5079874;28;20080;-47
2021/10/06 16:02:46;;;;;;;5.30;4.45;;;29.30;91.60;;;;;;5078686;28;20039;-44
2021/10/06 16:05:17;;;;;;;9.48;4.25;;;29.30;91.50;;;;;;5080170;28;20025;-43
2021/10/06 16:07:44;;;;;;;8.57;4.60;;;29.30;91.40;;;;;;5079998;28;20040;-45
2021/10/06 16:10:12;;;;;;;7.55;4.45;;;29.30;91.40;;;;;;5079858;28;20058;-41
2021/10/06 16:12:39;;;;;;;10.57;5.03;;;29.30;91.40;;;;;;5067206;28;20024;-50
2021/10/06 16:15:07;;;;;;;8.90;5.03;;;29.30;91.40;;;;;;5066728;28;20095;-45
2021/10/06 16:17:34;;;;;;;10.15;5.47;;;29.30;91.20;;;;;;5066252;28;20313;-50
2021/10/06 16:20:00;;;;;;;6.75;4.63;;;29.40;91.20;;;;;;5066175;28;20313;-44
2021/10/06 16:22:30;;;;;;;11.55;5.35;;;29.40;91.20;;;;;;5066343;28;20080;-48
2021/10/06 16:24:58;;;;;;;9.85;5.72;;;29.40;91.10;;;;;;5066299;28;20025;-48
2021/10/06 16:27:26;;;;;;;10.43;5.47;;;29.40;90.90;;;;;;5066293;28;20013;-51
2021/10/06 16:29:53;;;;;;;7.25;5.15;;;29.50;90.80;;;;;;5066362;28;20025;-48
2021/10/06 16:32:20;;;;;;;9.65;5.55;;;29.40;90.60;;;;;;5066083;28;20040;-44
2021/10/06 16:34:47;;;;;;;11.55;5.57;;;29.40;90.60;;;;;;5066321;28;20253;-48
2021/10/06 16:37:14;;;;;;;8.57;5.22;;;29.50;90.60;;;;;;5066061;28;20021;-47
2021/10/06 16:39:42;;;;;;;12.63;5.80;;;29.50;90.50;;;;;;5065875;28;20029;-48
2021/10/06 16:42:13;;;;;;;8.07;5.35;;;29.50;90.50;;;;;;5065919;28;20063;-44
2021/10/06 16:44:41;;;;;;;9.88;5.68;;;29.60;90.50;;;;;;5065930;28;20028;-54
2021/10/06 16:47:10;;;;;;;11.50;5.65;;;29.50;90.40;;;;;;5064611;28;20025;-52
2021/10/06 16:49:36;;;;;;;7.78;5.40;;;29.60;90.40;;;;;;5065850;28;20317;-52
2021/10/06 16:52:04;;;;;;;9.82;5.88;;;29.60;90.30;;;;;;5065767;28;20035;-52
2021/10/06 16:54:31;;;;;;;10.25;5.55;;;29.60;90.20;;;;;;5065696;28;20062;-55
2021/10/06 16:56:57;;;;;;;10.95;5.82;;;29.60;90.20;;;;;;5065692;28;20074;-49
2021/10/06 16:59:24;;;;;;;9.65;5.82;;;29.60;90.10;;;;;;5065349;28;20045;-49
2021/10/06 17:01:51;;;;;;;8.63;5.43;;;29.60;90.00;;;;;;5065522;28;20021;-50
2021/10/06 17:04:17;;;;;;;14.20;5.93;;;29.60;90.00;;;;;;5065617;28;20225;-46
2021/10/06 17:06:45;;;;;;;7.38;5.75;;;29.70;90.00;;;;;;5065524;28;20021;-52
2021/10/06 17:09:12;;;;;;;10.45;6.47;;;29.70;89.90;;;;;;5065372;28;20020;-49
2021/10/06 17:11:39;;;;;;;10.35;6.20;;;29.70;89.80;;;;;;5065356;28;20212;-51
2021/10/06 17:14:06;;;;;;;7.88;5.55;;;29.70;89.80;;;;;;5064435;28;20016;-51
2021/10/06 17:16:32;;;;;;;10.05;6.22;;;29.70;89.70;;;;;;5065251;28;20017;-51
2021/10/06 17:18:59;;;;;;;9.55;5.93;;;29.70;89.70;;;;;;5065420;28;20201;-50
2021/10/06 17:21:26;;;;;;;9.43;5.63;;;29.70;89.60;;;;;;5065245;28;20024;-51
2021/10/06 17:23:52;;;;;;;9.93;6.28;;;29.70;89.50;;;;;;5064143;28;20309;-56
2021/10/06 17:26:19;;;;;;;10.68;5.93;;;29.70;89.50;;;;;;5065187;28;20037;-50
2021/10/06 17:28:45;;;;;;;10.40;6.07;;;29.70;89.50;;;;;;5065481;28;20023;-49
2021/10/06 17:31:13;;;;;;;10.07;5.72;;;29.70;89.50;;;;;;5065384;28;20040;-52
2021/10/06 17:33:39;;;;;;;17.05;6.88;;;29.70;89.50;;;;;;5065312;28;20021;-55
2021/10/06 17:36:06;;;;;;;10.80;6.13;;;29.70;89.50;;;;;;5065503;28;20025;-57
2021/10/06 17:38:33;;;;;;;21.80;6.47;;;29.70;90.10;;;;;;5064854;28;20017;-59
2021/10/06 17:40:59;;;;;;;17.83;6.57;;;29.70;89.80;;;;;;5065230;28;20037;-54
2021/10/06 17:43:26;;;;;;;26.45;6.35;;;29.70;89.90;;;;;;5064856;28;20058;-52
2021/10/06 17:45:53;;;;;;;19.42;6.85;;;29.70;90.10;;;;;;5065146;28;20092;-55
2021/10/06 17:48:19;;;;;;;22.52;7.05;;;29.70;90.00;;;;;;5064927;28;20036;-55
2021/10/06 17:50:46;;;;;;;30.60;6.90;;;29.70;90.10;;;;;;5065029;28;20055;-54
2021/10/06 17:53:13;;;;;;;30.55;6.82;;;29.70;90.10;;;;;;5064790;28;20233;-55
2021/10/06 17:55:41;;;;;;;27.80;7.65;;;29.70;90.10;;;;;;5064867;28;20096;-57
2021/10/06 17:58:09;;;;;;;31.48;6.65;;;29.70;90.20;;;;;;5064658;28;20027;-52
2021/10/06 18:00:36;;;;;;;44.70;8.00;;;29.70;90.20;;;;;;5064154;28;20099;-55
2021/10/06 18:03:03;;;;;;;41.38;8.07;;;29.70;90.20;;;;;;5064435;28;20017;-55
2021/10/06 18:05:30;;;;;;;48.40;8.18;;;29.70;90.10;;;;;;5064310;28;20033;-56
2021/10/06 18:07:58;;;;;;;49.70;7.55;;;29.70;90.10;;;;;;5064362;28;20063;-53
2021/10/06 18:10:28;;;;;;;59.95;9.48;;;29.70;90.10;;;;;;5064537;28;20036;-55
2021/10/06 18:12:55;;;;;;;52.72;8.43;;;29.70;90.00;;;;;;5064330;28;20031;-59
2021/10/06 18:15:22;;;;;;;58.90;8.93;;;29.70;90.00;;;;;;5064432;28;20078;-54
2021/10/06 18:17:49;;;;;;;61.85;8.43;;;29.70;90.00;;;;;;5064132;28;20274;-57
2021/10/06 18:20:16;;;;;;;46.40;8.55;;;29.70;90.00;;;;;;5064327;28;20096;-56
2021/10/06 18:22:43;;;;;;;55.05;8.50;;;29.70;90.00;;;;;;5064029;28;20371;-55
2021/10/06 18:25:11;;;;;;;41.17;7.25;;;29.70;90.00;;;;;;5064382;28;20037;-54
2021/10/06 18:27:38;;;;;;;46.55;7.57;;;29.70;90.00;;;;;;5064035;28;20045;-56
2021/10/06 18:30:07;;;;;;;32.85;7.07;;;29.70;90.00;;;;;;5064185;28;20088;-59
2021/10/06 18:32:34;;;;;;;46.92;8.15;;;29.80;90.10;;;;;;5063979;28;20033;-53
2021/10/06 18:35:03;;;;;;;26.15;6.85;;;29.70;90.00;;;;;;5062599;28;20033;-56
2021/10/06 18:37:30;;;;;;;40.67;6.88;;;29.70;90.00;;;;;;5063781;28;20044;-54
2021/10/06 18:39:57;;;;;;;30.05;6.38;;;29.80;90.10;;;;;;5064215;28;20032;-55
2021/10/06 18:42:23;;;;;;;28.45;6.25;;;29.70;90.10;;;;;;5063826;28;20047;-55
2021/10/06 18:44:50;;;;;;;35.40;6.43;;;29.80;90.10;;;;;;5063857;28;20021;-55
2021/10/06 18:47:17;;;;;;;23.65;6.50;;;29.80;90.10;;;;;;5063921;28;20031;-54
2021/10/06 18:49:43;;;;;;;25.25;6.35;;;29.80;90.20;;;;;;5063595;28;20264;-58
2021/10/06 18:52:10;;;;;;;36.35;6.78;;;29.80;90.20;;;;;;5063834;28;20205;-59
2021/10/06 18:54:37;;;;;;;28.42;6.20;;;29.80;90.20;;;;;;5063974;28;20108;-56
2021/10/06 18:57:04;;;;;;;25.80;6.20;;;29.80;90.20;;;;;;5063724;28;20209;-55
2021/10/06 18:59:32;;;;;;;22.15;5.88;;;29.80;90.20;;;;;;5063415;28;20056;-53
2021/10/06 19:02:00;;;;;;;17.13;5.10;;;29.70;90.00;;;;;;5063607;28;20028;-54
2021/10/06 19:04:26;;;;;;;19.30;5.78;;;29.70;90.00;;;;;;5063689;28;20321;-54
2021/10/06 19:06:53;;;;;;;15.23;4.82;;;29.70;89.70;;;;;;5063693;28;20047;-55
2021/10/06 19:09:20;;;;;;;14.45;5.13;;;29.70;89.60;;;;;;5063515;28;20036;-52
2021/10/06 19:11:46;;;;;;;14.05;4.28;;;29.70;89.70;;;;;;5063526;28;20047;-52
2021/10/06 19:14:13;;;;;;;15.23;5.15;;;29.70;89.20;;;;;;5063655;28;20057;-52
2021/10/06 19:16:41;;;;;;;11.85;4.30;;;29.70;89.00;;;;;;5063387;28;20021;-54
2021/10/06 19:19:08;;;;;;;15.10;4.80;;;29.70;89.00;;;;;;5063384;28;20016;-57
2021/10/06 19:21:35;;;;;;;10.43;4.30;;;29.70;89.00;;;;;;5063532;28;20309;-53
2021/10/06 19:24:02;;;;;;;12.98;4.25;;;29.70;89.10;;;;;;5063294;28;20025;-55
2021/10/06 19:26:30;;;;;;;10.35;4.07;;;29.70;88.80;;;;;;5063384;28;20182;-44
2021/10/06 19:28:58;;;;;;;7.40;3.30;;;29.70;88.80;;;;;;5063290;28;20040;-49
2021/10/06 19:31:25;;;;;;;10.05;3.60;;;29.70;88.80;;;;;;5062947;28;20045;-46
2021/10/06 19:33:52;;;;;;;10.80;3.80;;;29.70;88.70;;;;;;5063271;28;20028;-50
2021/10/06 19:36:23;;;;;;;6.53;2.97;;;29.70;88.40;;;;;;5062194;28;20029;-51
2021/10/06 19:38:50;;;;;;;7.00;3.05;;;29.70;88.50;;;;;;5063014;28;20217;-54
2021/10/06 19:41:16;;;;;;;6.78;3.08;;;29.70;88.20;;;;;;5063564;28;20209;-56
2021/10/06 19:43:43;;;;;;;5.55;3.08;;;29.70;88.20;;;;;;5063242;28;20013;-58
2021/10/06 19:46:11;;;;;;;5.32;3.10;;;29.70;88.20;;;;;;5064039;28;20080;-56
2021/10/06 19:48:37;;;;;;;5.20;2.88;;;29.70;88.20;;;;;;5066955;28;20021;-57
2021/10/06 19:51:04;;;;;;;5.30;2.97;;;29.70;88.20;;;;;;5067531;28;20033;-54
2021/10/06 19:53:30;;;;;;;7.88;3.00;;;29.70;88.30;;;;;;5066791;28;20021;-55
2021/10/06 19:55:57;;;;;;;4.78;3.00;;;29.70;87.80;;;;;;5067406;28;20117;-54
2021/10/06 19:58:27;;;;;;;6.80;2.85;;;29.70;87.70;;;;;;5066917;28;20261;-53
2021/10/06 20:00:53;;;;;;;4.93;2.53;;;29.70;87.70;;;;;;5066513;28;20051;-54
2021/10/06 20:03:20;;;;;;;5.00;2.47;;;29.70;87.80;;;;;;5066835;28;20021;-58
2021/10/06 20:05:47;;;;;;;3.75;2.50;;;29.60;87.10;;;;;;5067131;28;20028;-57
2021/10/06 20:08:14;;;;;;;7.35;2.55;;;29.60;87.30;;;;;;5066573;28;20037;-55
2021/10/06 20:10:41;;;;;;;3.70;2.60;;;29.60;87.30;;;;;;5066956;28;20063;-54
2021/10/06 20:13:08;;;;;;;3.78;2.45;;;29.60;87.40;;;;;;5066619;28;20066;-46
2021/10/06 20:15:34;;;;;;;5.32;2.63;;;29.70;87.70;;;;;;5066770;28;20032;-44
2021/10/06 20:18:01;;;;;;;4.20;2.70;;;29.70;87.50;;;;;;5066548;28;20032;-43
2021/10/06 20:20:28;;;;;;;6.47;2.30;;;29.70;87.60;;;;;;5066767;28;20024;-53
2021/10/06 20:22:54;;;;;;;3.13;2.15;;;29.70;87.70;;;;;;5066307;28;20073;-53
2021/10/06 20:25:21;;;;;;;6.22;2.40;;;29.70;87.40;;;;;;5066709;28;20048;-51
2021/10/06 20:27:47;;;;;;;4.28;1.92;;;29.70;87.40;;;;;;5066396;28;20389;-50
2021/10/06 20:30:14;;;;;;;5.80;2.40;;;29.70;87.50;;;;;;5066448;28;20029;-46
2021/10/06 20:32:42;;;;;;;6.53;2.40;;;29.70;87.60;;;;;;5066168;28;20017;-52
2021/10/06 20:35:16;;;;;;;5.53;2.50;;;29.70;87.50;;;;;;5066104;28;20325;-52
2021/10/06 20:40:12;;;;;;;4.28;2.25;;;29.70;87.70;;;;;;5066239;28;20025;-44
2021/10/06 20:42:39;;;;;;;3.72;2.35;;;29.70;87.80;;;;;;5066036;28;20028;-47
2021/10/06 20:45:07;;;;;;;5.15;2.30;;;29.70;87.70;;;;;;5066000;28;20025;-48
2021/10/06 20:47:34;;;;;;;3.47;2.45;;;29.70;87.70;;;;;;5065944;28;20187;-55
2021/10/06 20:50:00;;;;;;;5.07;2.35;;;29.70;87.70;;;;;;5066125;28;20025;-49
2021/10/06 20:52:27;;;;;;;5.15;2.58;;;29.70;87.80;;;;;;5065722;28;20051;-49
2021/10/06 20:54:54;;;;;;;3.60;2.08;;;29.70;87.80;;;;;;5065964;28;20035;-53
2021/10/06 20:57:21;;;;;;;4.88;2.50;;;29.70;87.90;;;;;;5065790;28;20107;-51
2021/10/06 20:59:48;;;;;;;4.80;2.50;;;29.70;87.90;;;;;;5065334;28;20103;-52
2021/10/06 21:02:16;;;;;;;4.95;2.70;;;29.70;88.00;;;;;;5065718;28;20017;-41
2021/10/06 21:04:45;;;;;;;3.58;2.30;;;29.70;87.90;;;;;;5065917;28;20063;-50
2021/10/06 21:07:14;;;;;;;3.55;2.20;;;29.70;88.00;;;;;;5065461;28;20187;-51
2021/10/06 21:09:40;;;;;;;4.68;2.33;;;29.70;88.10;;;;;;5065644;28;20033;-45
2021/10/06 21:12:07;;;;;;;4.10;2.30;;;29.60;88.00;;;;;;5065528;28;20021;-44
2021/10/06 21:14:34;;;;;;;5.60;2.55;;;29.60;88.00;;;;;;5065376;28;20025;-47
2021/10/06 21:17:00;;;;;;;5.15;2.72;;;29.70;88.10;;;;;;5065481;28;20025;-44
2021/10/06 21:19:27;;;;;;;6.43;2.70;;;29.60;88.00;;;;;;5065300;28;20091;-46
2021/10/06 21:21:54;;;;;;;3.35;2.67;;;29.70;88.10;;;;;;5065221;28;20021;-49
2021/10/06 21:24:21;;;;;;;6.45;2.60;;;29.60;88.00;;;;;;5065250;28;20025;-45
2021/10/06 21:26:48;;;;;;;5.10;2.50;;;29.60;88.00;;;;;;5065152;28;20028;-46
2021/10/06 21:29:14;;;;;;;3.08;2.30;;;29.60;88.00;;;;;;5065103;28;20016;-49
2021/10/06 21:31:41;;;;;;;3.80;2.60;;;29.60;88.10;;;;;;5065117;28;20042;-45
2021/10/06 21:34:08;;;;;;;27.98;3.50;;;29.60;88.10;;;;;;5065023;28;20040;-49
2021/10/06 21:36:35;;;;;;;14.20;3.33;;;29.60;88.20;;;;;;5064906;28;20025;-46
2021/10/06 21:39:02;;;;;;;15.18;3.45;;;29.60;88.20;;;;;;5064905;28;20017;-49
2021/10/06 21:41:29;;;;;;;11.80;3.58;;;29.60;88.10;;;;;;5063698;28;20251;-52
2021/10/06 21:43:56;;;;;;;13.27;3.70;;;29.60;86.90;;;;;;5064718;28;20040;-49
2021/10/06 21:46:23;;;;;;;24.30;3.95;;;29.60;86.30;;;;;;5064855;28;20360;-49
2021/10/06 21:48:49;;;;;;;46.45;6.13;;;29.50;86.00;;;;;;5064689;28;20025;-55
2021/10/06 21:51:16;;;;;;;34.22;4.93;;;29.50;87.00;;;;;;5065388;28;20049;-53
2021/10/06 21:53:43;;;;;;;18.20;3.42;;;29.50;86.80;;;;;;5064749;28;20029;-51
2021/10/06 21:56:11;;;;;;;14.57;3.83;;;29.50;87.10;;;;;;5065103;28;20055;-51
2021/10/06 21:58:37;;;;;;;40.45;5.18;;;29.40;88.10;;;;;;5064396;28;20244;-53
2021/10/06 22:01:04;;;;;;;65.75;5.85;;;29.50;88.30;;;;;;5064279;28;20076;-49
2021/10/06 22:03:31;;;;;;;37.85;5.30;;;29.50;88.60;;;;;;5064482;28;20040;-49
2021/10/06 22:05:57;;;;;;;33.15;4.72;;;29.40;88.50;;;;;;5064225;28;20028;-48
2021/10/06 22:08:24;;;;;;;30.65;5.00;;;29.40;88.50;;;;;;5064396;28;20016;-48
2021/10/06 22:10:51;;;;;;;40.30;5.47;;;29.40;88.60;;;;;;5064101;28;20305;-49
2021/10/06 22:13:17;;;;;;;34.70;4.82;;;29.40;88.60;;;;;;5064180;28;20081;-49
2021/10/06 22:15:44;;;;;;;44.03;5.60;;;29.50;88.60;;;;;;5064625;28;20036;-47
2021/10/06 22:18:10;;;;;;;22.98;4.20;;;29.40;88.50;;;;;;5064284;28;20051;-49
2021/10/06 22:20:37;;;;;;;26.55;4.70;;;29.40;88.70;;;;;;5064373;28;20056;-46
2021/10/06 22:23:04;;;;;;;17.80;4.20;;;29.40;88.80;;;;;;5064179;28;20389;-50
2021/10/06 22:25:31;;;;;;;19.95;5.47;;;29.40;88.80;;;;;;5064423;28;20032;-53
2021/10/06 22:27:57;;;;;;;21.02;5.10;;;29.40;88.90;;;;;;5064024;28;20025;-58
2021/10/06 22:30:24;;;;;;;17.30;4.88;;;29.40;88.90;;;;;;5064383;28;20033;-57
2021/10/06 22:32:51;;;;;;;16.40;4.65;;;29.40;89.00;;;;;;5064279;28;20232;-53
2021/10/06 22:35:18;;;;;;;14.82;4.60;;;29.40;89.10;;;;;;5064418;28;20029;-53
2021/10/06 22:37:44;;;;;;;20.45;5.43;;;29.40;89.20;;;;;;5064168;28;20025;-47
2021/10/06 22:40:12;;;;;;;18.85;4.57;;;29.40;89.20;;;;;;5064107;28;20027;-48
2021/10/06 22:42:39;;;;;;;15.95;5.10;;;29.40;89.30;;;;;;5063911;28;20066;-48
2021/10/06 22:45:07;;;;;;;12.27;5.00;;;29.40;89.40;;;;;;5063978;28;20091;-48
2021/10/06 22:47:35;;;;;;;14.07;4.72;;;29.40;89.40;;;;;;5063926;28;20040;-47
2021/10/06 22:50:05;;;;;;;12.25;4.50;;;29.40;89.50;;;;;;5063914;28;20021;-50
2021/10/06 22:52:31;;;;;;;18.38;5.47;;;29.30;89.50;;;;;;5063843;28;20032;-51
2021/10/06 22:54:58;;;;;;;10.15;5.00;;;29.40;89.60;;;;;;5063881;28;20025;-46
2021/10/06 22:57:24;;;;;;;10.35;4.90;;;29.30;89.60;;;;;;5063681;28;20029;-52
2021/10/06 22:59:51;;;;;;;15.88;4.60;;;29.30;89.80;;;;;;5063393;28;20083;-51
2021/10/06 23:02:18;;;;;;;12.18;4.32;;;29.30;89.80;;;;;;5063600;28;20088;-54
2021/10/06 23:04:44;;;;;;;7.05;4.30;;;29.30;89.80;;;;;;5063684;28;20029;-50
2021/10/06 23:07:11;;;;;;;9.35;4.53;;;29.30;89.90;;;;;;5063504;28;20317;-50
2021/10/06 23:09:38;;;;;;;15.88;5.10;;;29.30;89.90;;;;;;5063641;28;20035;-56
2021/10/06 23:12:05;;;;;;;6.78;4.50;;;29.30;90.00;;;;;;5063679;28;20043;-53
2021/10/06 23:14:32;;;;;;;12.68;5.00;;;29.30;90.00;;;;;;5063540;28;20036;-57
2021/10/06 23:16:58;;;;;;;10.00;4.82;;;29.30;90.00;;;;;;5062375;28;20119;-56
2021/10/06 23:19:25;;;;;;;8.43;4.10;;;29.20;90.00;;;;;;5063561;28;20202;-55
2021/10/06 23:21:51;;;;;;;9.05;4.45;;;29.20;90.00;;;;;;5065022;28;20024;-57
2021/10/06 23:24:18;;;;;;;9.80;4.70;;;29.20;90.00;;;;;;5067582;28;20053;-55
2021/10/06 23:26:45;;;;;;;9.02;4.32;;;29.20;90.00;;;;;;5067481;28;20083;-56
2021/10/06 23:29:11;;;;;;;11.70;4.55;;;29.20;90.10;;;;;;5067286;28;20020;-56
2021/10/06 23:31:38;;;;;;;10.73;5.15;;;29.20;90.00;;;;;;5067284;28;20313;-56
2021/10/06 23:34:05;;;;;;;12.85;5.10;;;29.20;90.10;;;;;;5067309;28;20017;-57
2021/10/06 23:36:31;;;;;;;7.93;4.78;;;29.20;90.10;;;;;;5067076;28;20309;-57
2021/10/06 23:38:58;;;;;;;10.45;4.97;;;29.20;90.10;;;;;;5067137;28;20092;-56
2021/10/06 23:41:25;;;;;;;8.85;4.70;;;29.20;90.20;;;;;;5067084;28;20044;-56
2021/10/06 23:43:51;;;;;;;10.15;6.78;;;29.10;90.10;;;;;;5067027;28;20020;-55
2021/10/06 23:46:18;;;;;;;10.75;6.00;;;29.10;90.10;;;;;;5067341;28;20260;-56
2021/10/06 23:48:44;;;;;;;16.77;7.50;;;29.10;90.10;;;;;;5067028;28;20009;-57
2021/10/06 23:51:11;;;;;;;15.57;6.93;;;29.10;90.10;;;;;;5066778;28;20025;-56
2021/10/06 23:53:38;;;;;;;11.07;6.35;;;29.10;90.20;;;;;;5067019;28;20082;-56
2021/10/06 23:56:04;;;;;;;10.00;5.57;;;29.10;90.20;;;;;;5066094;28;20222;-54
2021/10/06 23:58:31;;;;;;;7.43;4.80;;;29.10;90.20;;;;;;5065698;28;20100;-57
